CheckWX is a tool to help pilots better visualize weather data.  It is not intended as a substitute for an official pre-flight weather briefing.

00:39:59 UTC

KTYS TAF
Mc Ghee Tyson Airport
Knoxville, Tennessee, USA
KTYS 040520Z 0406/0506 00000KT P6SM SCT180 FM041500 02002KT P6SM FEW060

Jul-4@
06:00 UTC

Jul-4 @ 06:00 UTC

Jul-4@
15:00 UTC

Jul-4 @ 15:00 UTC

TAF KTYS 040520Z 0406/0506 00000KT P6SM SCT180

Expired

Cloud Levels
  • Scattered at 18,000' AGL

Jul-4@
15:00 UTC

Jul-4 @ 15:00 UTC

Jul-5@
06:00 UTC

Jul-5 @ 06:00 UTC

FM041500 02002KT P6SM FEW060

From

From Standard forecast or significant change

Wind
  • 020° at 2 KTS
Cloud Levels
  • Few at 6,000' AGL